Time;durP1;ratioP1;P1;durP2;ratioP2;P2;SDS_P1;SDS_P2;PMS_P1;PMS_P2;Temp;Humidity;BMP_temperature;BMP_pressure;BME280_temperature;BME280_humidity;BME280_pressure;Samples;Min_cycle;Max_cycle;Signal;HPM_P1;HPM_P2
2022/10/11 00:01:49;;;;;;;10.77;1.80;;;7.90;99.90;;;;;;5009849;28;20058;-63
2022/10/11 00:04:14;;;;;;;12.35;1.92;;;7.90;99.90;;;;;;5011011;28;20037;-62
2022/10/11 00:06:42;;;;;;;13.60;1.58;;;7.80;99.90;;;;;;5017818;28;20113;-61
2022/10/11 00:09:10;;;;;;;9.88;2.00;;;7.70;99.90;;;;;;5005919;28;20025;-62
2022/10/11 00:11:36;;;;;;;9.93;1.70;;;7.70;99.90;;;;;;5024871;28;20026;-62
2022/10/11 00:14:03;;;;;;;10.70;2.33;;;7.60;99.90;;;;;;5007841;28;20026;-65
2022/10/11 00:16:29;;;;;;;12.40;1.80;;;7.60;99.90;;;;;;5010330;28;20428;-64
2022/10/11 00:18:54;;;;;;;13.88;1.98;;;7.60;99.90;;;;;;5003315;28;20079;-65
2022/10/11 00:21:20;;;;;;;3.60;1.50;;;7.50;99.90;;;;;;5010436;28;20030;-64
2022/10/11 00:23:47;;;;;;;10.75;1.52;;;7.50;99.90;;;;;;5007532;28;20489;-64
2022/10/11 00:26:12;;;;;;;9.98;1.73;;;7.50;99.90;;;;;;5010833;28;20033;-64
2022/10/11 00:28:39;;;;;;;10.18;1.42;;;7.40;99.90;;;;;;5012020;28;20045;-64
2022/10/11 00:31:10;;;;;;;8.80;2.33;;;7.40;99.90;;;;;;5010036;28;20042;-65
2022/10/11 00:33:36;;;;;;;15.77;1.58;;;7.30;99.90;;;;;;5007715;28;20416;-65
2022/10/11 00:36:02;;;;;;;7.15;1.70;;;7.30;99.90;;;;;;4998448;28;20096;-64
2022/10/11 00:38:28;;;;;;;9.57;2.20;;;7.30;99.90;;;;;;5006091;28;20094;-64
2022/10/11 00:40:54;;;;;;;11.43;2.08;;;7.30;99.90;;;;;;5009686;28;20149;-64
2022/10/11 00:43:23;;;;;;;10.98;1.98;;;7.30;99.90;;;;;;4997922;28;20022;-64
2022/10/11 00:45:55;;;;;;;11.45;2.20;;;7.20;99.90;;;;;;5024697;28;20481;-64
2022/10/11 00:48:42;;;;;;;8.05;1.88;;;7.20;99.90;;;;;;5010610;28;20033;-63
2022/10/11 00:51:29;;;;;;;8.95;1.88;;;7.10;99.90;;;;;;5001271;28;20033;-65
2022/10/11 00:53:55;;;;;;;7.72;1.80;;;7.10;99.90;;;;;;5008450;28;20105;-64
2022/10/11 00:56:29;;;;;;;9.82;3.47;;;7.10;99.90;;;;;;5002741;28;20109;-64
2022/10/11 00:58:57;;;;;;;8.98;2.45;;;7.00;99.90;;;;;;5009160;28;20065;-64
2022/10/11 01:01:23;;;;;;;8.05;2.10;;;7.00;99.90;;;;;;5010104;28;20402;-64
2022/10/11 01:03:48;;;;;;;14.55;2.53;;;7.00;99.90;;;;;;5010019;28;20055;-64
2022/10/11 01:06:14;;;;;;;15.73;2.28;;;6.90;99.90;;;;;;5002778;28;20030;-64
2022/10/11 01:08:40;;;;;;;13.43;2.03;;;6.80;99.90;;;;;;5006327;28;20041;-64
2022/10/11 01:11:11;;;;;;;8.63;2.13;;;6.90;99.90;;;;;;5000341;28;20042;-64
2022/10/11 01:14:04;;;;;;;15.48;1.90;;;6.80;99.90;;;;;;5001091;28;20026;-62
2022/10/11 01:16:58;;;;;;;9.80;2.17;;;6.80;99.90;;;;;;5005515;28;20030;-64
2022/10/11 01:20:11;;;;;;;12.68;2.88;;;6.80;99.90;;;;;;5000103;28;20034;-64
2022/10/11 01:23:00;;;;;;;9.88;2.08;;;6.80;99.90;;;;;;4993643;28;20104;-64
2022/10/11 01:25:52;;;;;;;16.25;2.08;;;6.80;99.90;;;;;;5039910;28;20036;-64
2022/10/11 01:28:27;;;;;;;19.35;3.00;;;6.70;99.90;;;;;;5009677;28;20156;-64
2022/10/11 01:31:00;;;;;;;6.78;1.90;;;6.70;99.90;;;;;;5027531;28;20052;-64
2022/10/11 01:33:26;;;;;;;12.55;2.88;;;6.60;99.90;;;;;;5009571;28;20036;-64
2022/10/11 01:36:13;;;;;;;11.40;3.72;;;6.60;99.90;;;;;;5008061;28;20037;-65
2022/10/11 01:38:45;;;;;;;9.55;2.47;;;6.60;99.90;;;;;;5008312;28;20109;-65
2022/10/11 01:41:20;;;;;;;12.45;2.58;;;6.60;99.90;;;;;;5009859;28;20025;-64
2022/10/11 01:43:48;;;;;;;13.15;2.72;;;6.60;99.90;;;;;;5005815;28;20041;-64
2022/10/11 01:46:15;;;;;;;11.50;3.28;;;6.60;99.90;;;;;;5020786;28;20485;-65
2022/10/11 01:48:52;;;;;;;13.75;2.67;;;6.50;99.90;;;;;;5008980;28;20038;-64
2022/10/11 01:51:21;;;;;;;14.07;3.03;;;6.50;99.90;;;;;;4999509;28;20040;-64
2022/10/11 01:54:12;;;;;;;12.43;2.47;;;6.50;99.90;;;;;;5010409;28;20514;-64
2022/10/11 01:56:58;;;;;;;15.43;3.30;;;6.50;99.90;;;;;;5009419;28;20436;-64
2022/10/11 01:59:49;;;;;;;10.75;2.65;;;6.50;99.90;;;;;;5028189;28;20582;-64
2022/10/11 02:02:31;;;;;;;9.35;2.40;;;6.50;99.90;;;;;;5008703;28;20038;-64
2022/10/11 02:05:02;;;;;;;15.80;2.78;;;6.50;99.90;;;;;;5008833;28;20057;-65
2022/10/11 02:07:41;;;;;;;17.15;3.05;;;6.40;99.90;;;;;;5004699;28;20105;-64
2022/10/11 02:10:25;;;;;;;13.73;3.47;;;6.50;99.90;;;;;;4997713;28;20050;-64
2022/10/11 02:13:02;;;;;;;11.90;3.13;;;6.50;99.90;;;;;;4998786;28;20777;-64
2022/10/11 02:15:31;;;;;;;13.43;2.60;;;6.50;99.90;;;;;;5007405;28;20026;-64
2022/10/11 02:18:00;;;;;;;12.65;3.42;;;6.40;99.90;;;;;;5009700;28;20034;-64
2022/10/11 02:20:28;;;;;;;10.60;2.58;;;6.40;99.90;;;;;;5049069;23;20053;-65
2022/10/11 02:23:01;;;;;;;13.98;3.33;;;6.40;99.90;;;;;;5046570;28;20113;-65
2022/10/11 02:25:31;;;;;;;13.35;3.45;;;6.30;99.90;;;;;;5043256;28;20108;-66
2022/10/11 02:27:59;;;;;;;15.57;2.88;;;6.30;99.90;;;;;;5042232;28;20037;-66
2022/10/11 02:30:25;;;;;;;20.00;3.03;;;6.40;99.90;;;;;;5044915;28;20029;-65
2022/10/11 02:32:53;;;;;;;11.35;2.30;;;6.40;99.90;;;;;;5043031;28;20068;-64
2022/10/11 02:35:23;;;;;;;20.45;2.35;;;6.50;99.90;;;;;;5061521;28;20450;-66
2022/10/11 02:37:52;;;;;;;14.38;2.35;;;6.60;99.90;;;;;;5038427;28;20017;-65
2022/10/11 02:40:31;;;;;;;14.70;2.30;;;6.70;99.90;;;;;;5035745;28;20095;-65
2022/10/11 02:43:18;;;;;;;12.50;2.50;;;6.60;99.90;;;;;;5040820;28;20487;-65
2022/10/11 02:45:58;;;;;;;14.73;2.47;;;6.50;99.90;;;;;;5045835;28;20075;-65
2022/10/11 02:48:28;;;;;;;17.40;2.70;;;6.40;99.90;;;;;;5047771;28;20035;-66
2022/10/11 02:50:55;;;;;;;22.60;3.80;;;6.40;99.90;;;;;;5050280;28;20605;-65
2022/10/11 02:53:21;;;;;;;11.00;2.88;;;6.30;99.90;;;;;;5042313;28;20518;-58
2022/10/11 02:55:49;;;;;;;14.80;2.25;;;6.20;99.90;;;;;;5044655;28;20252;-64
2022/10/11 02:58:15;;;;;;;15.90;2.85;;;6.10;99.90;;;;;;5047378;28;20015;-64
2022/10/11 03:00:40;;;;;;;11.10;3.03;;;6.10;99.90;;;;;;5044961;28;20455;-65
2022/10/11 03:03:06;;;;;;;13.48;2.20;;;6.20;99.90;;;;;;5041931;28;20016;-65
2022/10/11 03:05:36;;;;;;;11.10;2.45;;;6.20;99.90;;;;;;5048556;28;20060;-66
2022/10/11 03:08:02;;;;;;;11.63;3.13;;;6.20;99.90;;;;;;5037643;28;20098;-64
2022/10/11 03:10:27;;;;;;;10.45;2.70;;;6.10;99.90;;;;;;5049408;28;20032;-65
2022/10/11 03:12:53;;;;;;;12.18;2.38;;;6.00;99.90;;;;;;5050763;28;20017;-65
2022/10/11 03:15:18;;;;;;;18.25;3.53;;;6.00;99.90;;;;;;5048702;28;20048;-65
2022/10/11 03:17:44;;;;;;;14.25;2.92;;;5.90;99.90;;;;;;5052228;28;20127;-65
2022/10/11 03:20:10;;;;;;;13.45;2.92;;;5.90;99.90;;;;;;5045167;28;20780;-65
2022/10/11 03:22:35;;;;;;;13.55;3.05;;;5.80;99.90;;;;;;5056884;28;20068;-67
2022/10/11 03:25:01;;;;;;;9.35;2.53;;;5.80;99.90;;;;;;5046114;28;20036;-65
2022/10/11 03:27:27;;;;;;;17.10;3.28;;;5.90;99.90;;;;;;5046234;28;20104;-65
2022/10/11 03:29:53;;;;;;;11.57;3.05;;;5.90;99.90;;;;;;5040024;28;20517;-65
2022/10/11 03:32:18;;;;;;;14.60;3.20;;;5.90;99.90;;;;;;5064328;28;20029;-65
2022/10/11 03:34:44;;;;;;;21.40;3.10;;;6.00;99.90;;;;;;5040699;28;20029;-69
2022/10/11 03:37:09;;;;;;;14.40;2.97;;;6.00;99.90;;;;;;5043579;28;20025;-63
2022/10/11 03:39:36;;;;;;;8.13;2.75;;;6.00;99.90;;;;;;5047737;28;20021;-68
2022/10/11 03:42:02;;;;;;;18.23;3.10;;;6.10;99.90;;;;;;5047168;28;20197;-64
2022/10/11 03:44:27;;;;;;;21.30;3.08;;;6.20;99.90;;;;;;5047021;28;20538;-66
2022/10/11 03:46:53;;;;;;;19.95;3.78;;;6.20;99.90;;;;;;5043599;28;20037;-66
2022/10/11 03:49:18;;;;;;;20.85;4.35;;;6.40;99.90;;;;;;5041243;28;20534;-65
2022/10/11 03:51:44;;;;;;;16.20;5.88;;;6.50;99.90;;;;;;5047236;28;20431;-66
2022/10/11 03:54:09;;;;;;;13.65;4.70;;;6.60;99.90;;;;;;5050198;28;20025;-66
2022/10/11 03:56:35;;;;;;;18.48;5.07;;;6.70;99.90;;;;;;5046313;28;20029;-65
2022/10/11 03:59:01;;;;;;;13.13;5.03;;;6.70;99.90;;;;;;5047422;28;20555;-65
2022/10/11 04:01:26;;;;;;;20.02;4.88;;;6.80;99.90;;;;;;5047935;28;20236;-66
2022/10/11 04:03:55;;;;;;;29.00;4.40;;;6.90;99.90;;;;;;5051698;28;20506;-66
2022/10/11 04:06:21;;;;;;;37.38;6.15;;;6.90;99.90;;;;;;5041776;28;20028;-64
2022/10/11 04:08:47;;;;;;;24.13;5.68;;;7.00;99.90;;;;;;5043009;28;20071;-65
2022/10/11 04:11:12;;;;;;;16.80;5.25;;;7.00;99.90;;;;;;5042325;28;20060;-66
2022/10/11 04:13:38;;;;;;;13.48;5.68;;;7.00;99.90;;;;;;5038627;28;20026;-65
2022/10/11 04:16:04;;;;;;;19.80;5.53;;;7.00;99.90;;;;;;5048214;28;20021;-64
2022/10/11 04:18:29;;;;;;;20.55;5.18;;;7.00;99.90;;;;;;5047166;28;20025;-66
2022/10/11 04:20:55;;;;;;;21.08;6.53;;;7.00;99.90;;;;;;5046851;28;20029;-67
2022/10/11 04:23:21;;;;;;;24.52;5.32;;;7.00;99.90;;;;;;5044424;28;20094;-63
2022/10/11 04:25:47;;;;;;;11.10;5.07;;;7.00;99.90;;;;;;5045230;28;20021;-64
2022/10/11 04:28:13;;;;;;;9.38;4.63;;;6.90;99.90;;;;;;5042641;28;20452;-65
2022/10/11 04:30:39;;;;;;;13.05;5.25;;;6.90;99.90;;;;;;5043748;28;20048;-65
2022/10/11 04:33:04;;;;;;;9.52;4.82;;;6.80;99.90;;;;;;5036453;28;20075;-66
2022/10/11 04:35:30;;;;;;;16.27;4.72;;;6.80;99.90;;;;;;5046063;28;20055;-66
2022/10/11 04:37:55;;;;;;;16.70;5.47;;;6.70;99.90;;;;;;5049952;28;20048;-65
2022/10/11 04:40:21;;;;;;;19.63;5.60;;;6.70;99.90;;;;;;5045740;28;20029;-65
2022/10/11 04:42:49;;;;;;;21.63;5.90;;;6.70;99.90;;;;;;5042903;28;20034;-66
2022/10/11 04:45:14;;;;;;;22.23;4.63;;;6.60;99.90;;;;;;5046469;28;20063;-66
2022/10/11 04:47:40;;;;;;;16.02;5.35;;;6.60;99.90;;;;;;5050630;28;20044;-65
2022/10/11 04:50:06;;;;;;;11.48;4.63;;;6.60;99.90;;;;;;5041997;28;20025;-65
2022/10/11 04:52:32;;;;;;;13.43;4.97;;;6.60;99.90;;;;;;5045095;28;20679;-65
2022/10/11 04:54:58;;;;;;;28.30;6.13;;;6.60;99.90;;;;;;5050172;28;20021;-64
2022/10/11 04:57:23;;;;;;;15.52;4.75;;;6.50;99.90;;;;;;5045876;28;20428;-62
2022/10/11 04:59:49;;;;;;;27.08;5.72;;;6.50;99.90;;;;;;5044556;28;20519;-65
2022/10/11 05:02:14;;;;;;;17.38;5.68;;;6.40;99.90;;;;;;5044587;28;20112;-64
2022/10/11 05:04:40;;;;;;;18.27;5.60;;;6.30;99.90;;;;;;5044218;28;20090;-66
2022/10/11 05:07:05;;;;;;;42.75;6.38;;;6.30;99.90;;;;;;5049387;28;20055;-65
2022/10/11 05:09:31;;;;;;;23.15;4.78;;;6.30;99.90;;;;;;5043902;28;20468;-63
2022/10/11 05:11:56;;;;;;;14.07;5.05;;;6.20;99.90;;;;;;5038826;28;20492;-65
2022/10/11 05:14:22;;;;;;;19.48;5.70;;;6.20;99.90;;;;;;5049334;28;20021;-64
2022/10/11 05:16:47;;;;;;;30.52;6.13;;;6.20;99.90;;;;;;5049691;28;20017;-66
2022/10/11 05:19:13;;;;;;;33.65;5.43;;;6.20;99.90;;;;;;5044505;28;20021;-65
2022/10/11 05:21:39;;;;;;;79.13;5.13;;;6.20;99.90;;;;;;5046037;28;20028;-66
2022/10/11 05:24:05;;;;;;;27.35;5.47;;;6.20;99.90;;;;;;5038849;28;20123;-64
2022/10/11 05:26:30;;;;;;;44.47;7.32;;;6.20;99.90;;;;;;5040312;28;20040;-65
2022/10/11 05:28:56;;;;;;;36.72;5.68;;;6.20;99.90;;;;;;5047341;28;20029;-64
2022/10/11 05:31:21;;;;;;;27.92;4.80;;;6.20;99.90;;;;;;5044781;28;20062;-60
2022/10/11 05:33:47;;;;;;;48.00;5.88;;;6.20;99.90;;;;;;5041539;28;20419;-65
2022/10/11 05:36:13;;;;;;;16.83;5.22;;;6.20;99.90;;;;;;5046993;28;20025;-62
2022/10/11 05:38:39;;;;;;;22.08;5.38;;;6.20;99.90;;;;;;5040036;28;20226;-65
2022/10/11 05:41:05;;;;;;;19.70;4.97;;;6.20;99.90;;;;;;5039102;28;20395;-64
2022/10/11 05:43:31;;;;;;;14.77;5.38;;;6.30;99.90;;;;;;5037714;28;20563;-66
2022/10/11 05:45:57;;;;;;;40.20;5.47;;;6.30;99.90;;;;;;5043968;28;20065;-66
2022/10/11 05:48:25;;;;;;;21.73;6.60;;;6.30;99.90;;;;;;5038759;28;20039;-66
2022/10/11 05:50:51;;;;;;;45.85;5.72;;;6.40;99.90;;;;;;5035645;28;20035;-65
2022/10/11 05:53:17;;;;;;;18.15;4.43;;;6.30;99.90;;;;;;5046288;28;20087;-65
2022/10/11 05:55:43;;;;;;;19.30;5.53;;;6.40;99.90;;;;;;5036994;28;20044;-66
2022/10/11 05:58:13;;;;;;;27.13;6.00;;;6.40;99.90;;;;;;5039936;28;20021;-66
2022/10/11 06:00:38;;;;;;;22.33;5.65;;;6.40;99.90;;;;;;5023534;28;20044;-65
2022/10/11 06:03:06;;;;;;;34.83;5.65;;;6.40;99.90;;;;;;5047350;28;20103;-65
2022/10/11 06:05:33;;;;;;;24.23;6.35;;;6.40;99.90;;;;;;5040067;28;21590;-64
2022/10/11 06:07:59;;;;;;;36.78;6.65;;;6.40;99.90;;;;;;5045261;28;20548;-65
2022/10/11 06:10:25;;;;;;;19.60;5.03;;;6.50;99.90;;;;;;5045089;28;20032;-66
2022/10/11 06:12:51;;;;;;;27.63;4.57;;;6.50;99.90;;;;;;5046195;28;20037;-66
2022/10/11 06:15:16;;;;;;;24.35;5.72;;;6.50;99.90;;;;;;5038035;28;20404;-65
2022/10/11 06:17:42;;;;;;;10.95;5.53;;;6.50;99.90;;;;;;5044065;28;20034;-65
2022/10/11 06:20:08;;;;;;;16.60;5.85;;;6.50;99.90;;;;;;5042602;28;20029;-65
2022/10/11 06:22:34;;;;;;;17.70;5.38;;;6.50;99.90;;;;;;5050064;28;20580;-64
2022/10/11 06:24:59;;;;;;;16.88;5.50;;;6.50;99.90;;;;;;5053707;28;20116;-63
2022/10/11 06:27:25;;;;;;;25.63;5.97;;;6.50;99.90;;;;;;5042051;28;20033;-59
2022/10/11 06:29:51;;;;;;;28.80;6.18;;;6.50;99.90;;;;;;5044852;28;20029;-65
2022/10/11 06:32:16;;;;;;;47.63;6.78;;;6.70;99.90;;;;;;5048112;28;20033;-64
2022/10/11 06:34:42;;;;;;;19.83;5.70;;;6.70;99.90;;;;;;5044261;28;20546;-63
2022/10/11 06:37:07;;;;;;;13.52;5.55;;;6.70;99.90;;;;;;5045986;28;20029;-65
2022/10/11 06:39:33;;;;;;;17.40;6.95;;;6.80;99.90;;;;;;5046122;28;20025;-66
2022/10/11 06:41:59;;;;;;;20.50;5.43;;;6.80;99.90;;;;;;5044915;28;20029;-64
2022/10/11 06:44:25;;;;;;;46.60;6.07;;;6.90;99.90;;;;;;5036103;28;20076;-64
2022/10/11 06:46:51;;;;;;;33.10;5.80;;;7.00;99.90;;;;;;5037881;28;20032;-65
2022/10/11 06:49:17;;;;;;;48.97;6.03;;;7.10;99.90;;;;;;5045229;28;20033;-65
2022/10/11 06:51:42;;;;;;;59.30;6.38;;;7.10;99.90;;;;;;5048639;28;20041;-64
2022/10/11 06:54:08;;;;;;;63.33;6.93;;;7.10;99.90;;;;;;5043401;28;20037;-64
2022/10/11 06:56:33;;;;;;;58.20;6.90;;;7.10;99.90;;;;;;5042202;28;20160;-65
2022/10/11 06:58:59;;;;;;;65.93;6.60;;;7.10;99.90;;;;;;5043362;28;20052;-64
2022/10/11 07:01:26;;;;;;;60.92;6.10;;;7.10;99.90;;;;;;5041241;28;20018;-63
2022/10/11 07:03:53;;;;;;;28.15;6.35;;;7.00;99.90;;;;;;5045365;28;20025;-64
2022/10/11 07:06:24;;;;;;;102.13;6.15;;;7.00;99.90;;;;;;5039151;28;20029;-66
2022/10/11 07:08:51;;;;;;;49.00;5.93;;;7.00;99.90;;;;;;5044131;28;20098;-65
2022/10/11 07:11:19;;;;;;;100.15;6.55;;;7.00;99.90;;;;;;5041163;28;20036;-64
2022/10/11 07:14:06;;;;;;;30.38;5.13;;;7.10;99.90;;;;;;5044549;28;20033;-65
2022/10/11 07:16:36;;;;;;;59.88;7.10;;;7.10;99.90;;;;;;5046170;28;21929;-65
2022/10/11 07:19:04;;;;;;;44.47;5.45;;;7.00;99.90;;;;;;5044679;28;20021;-65
2022/10/11 07:21:31;;;;;;;18.15;5.53;;;7.10;99.90;;;;;;5043018;28;20052;-64
2022/10/11 07:23:57;;;;;;;25.88;5.75;;;7.30;99.90;;;;;;5023924;28;20049;-65
2022/10/11 07:26:22;;;;;;;34.85;5.70;;;7.60;99.90;;;;;;5047459;28;20095;-65
2022/10/11 07:28:48;;;;;;;12.85;6.40;;;7.70;99.90;;;;;;5051616;28;20064;-65
2022/10/11 07:31:20;;;;;;;22.52;5.50;;;7.60;99.90;;;;;;5042483;28;20041;-64
2022/10/11 07:33:46;;;;;;;21.35;5.75;;;7.70;99.90;;;;;;5042287;28;20037;-65
2022/10/11 07:36:12;;;;;;;14.88;5.53;;;7.80;99.90;;;;;;5049083;28;20044;-64
2022/10/11 07:38:42;;;;;;;23.02;5.43;;;7.80;99.90;;;;;;5049681;28;20032;-65
2022/10/11 07:41:08;;;;;;;13.63;5.68;;;7.70;99.90;;;;;;5047783;28;20112;-64
2022/10/11 07:43:35;;;;;;;19.23;6.40;;;7.80;99.90;;;;;;5048472;28;20119;-64
2022/10/11 07:46:02;;;;;;;21.70;5.90;;;7.90;99.90;;;;;;5044885;28;20040;-66
2022/10/11 07:48:33;;;;;;;19.77;5.20;;;7.90;99.90;;;;;;5050204;28;20507;-63
2022/10/11 07:51:13;;;;;;;13.52;6.72;;;8.10;99.90;;;;;;5048675;28;20471;-64
2022/10/11 07:53:47;;;;;;;12.57;6.05;;;8.10;99.90;;;;;;5042529;28;20106;-67
2022/10/11 07:56:16;;;;;;;20.83;5.85;;;8.30;99.90;;;;;;5038581;28;20021;-65
2022/10/11 07:58:42;;;;;;;14.95;6.05;;;8.40;99.90;;;;;;5042058;28;20040;-65
2022/10/11 08:01:09;;;;;;;21.95;6.57;;;8.50;99.90;;;;;;5036697;28;20021;-64
2022/10/11 08:03:36;;;;;;;33.38;6.97;;;8.40;99.90;;;;;;5048697;28;20017;-65
2022/10/11 08:06:05;;;;;;;19.92;6.43;;;8.60;99.90;;;;;;5043179;28;20092;-65
2022/10/11 08:08:31;;;;;;;26.00;7.47;;;8.60;99.90;;;;;;5043048;28;20033;-64
2022/10/11 08:10:58;;;;;;;48.42;7.35;;;8.70;99.90;;;;;;5038958;28;20041;-66
2022/10/11 08:13:24;;;;;;;19.15;6.57;;;8.60;99.90;;;;;;5048129;28;20025;-64
2022/10/11 08:15:50;;;;;;;35.15;6.43;;;8.60;99.90;;;;;;5044162;28;20014;-65
2022/10/11 08:18:16;;;;;;;19.27;8.60;;;8.90;99.90;;;;;;5040893;28;20029;-65
2022/10/11 08:20:41;;;;;;;15.15;7.03;;;9.00;99.90;;;;;;5041012;28;20021;-65
2022/10/11 08:23:08;;;;;;;61.80;7.22;;;9.00;99.90;;;;;;5030466;28;20040;-66
2022/10/11 08:25:38;;;;;;;19.98;6.50;;;8.90;99.90;;;;;;5041821;28;20045;-65
2022/10/11 08:28:04;;;;;;;40.10;7.25;;;8.90;99.90;;;;;;5046476;28;20134;-65
2022/10/11 08:30:30;;;;;;;43.05;6.75;;;9.00;99.90;;;;;;5040290;28;20523;-66
2022/10/11 08:32:56;;;;;;;22.08;6.80;;;8.90;99.90;;;;;;5042260;28;20021;-66
2022/10/11 08:35:21;;;;;;;32.05;8.02;;;8.90;99.90;;;;;;5035934;28;20040;-66
2022/10/11 08:37:47;;;;;;;49.40;7.75;;;9.10;99.90;;;;;;5039278;28;20036;-65
2022/10/11 08:40:19;;;;;;;40.30;7.88;;;9.10;99.90;;;;;;5045151;28;20142;-65
2022/10/11 08:42:54;;;;;;;29.63;9.85;;;9.20;99.90;;;;;;5041702;28;20021;-65
2022/10/11 08:45:28;;;;;;;22.00;11.20;;;9.10;99.90;;;;;;5036110;28;20021;-65
2022/10/11 08:48:03;;;;;;;16.80;8.75;;;9.30;99.90;;;;;;5036707;28;20072;-65
2022/10/11 08:50:29;;;;;;;37.78;6.28;;;9.60;99.90;;;;;;5053980;28;20063;-64
2022/10/11 08:53:13;;;;;;;12.75;7.28;;;9.70;99.90;;;;;;5048892;28;20459;-66
2022/10/11 08:55:42;;;;;;;;;;;9.70;99.90;;;;;;5043501;28;20033;-64
2022/10/11 08:58:14;;;;;;;26.92;7.97;;;10.00;99.90;;;;;;5044701;28;19913;-65
2022/10/11 09:00:40;;;;;;;16.20;8.98;;;9.90;99.90;;;;;;5042123;28;20071;-63
2022/10/11 09:03:28;;;;;;;14.25;8.20;;;10.10;99.90;;;;;;5044382;28;20494;-64
2022/10/11 09:06:11;;;;;;;14.10;8.05;;;10.20;99.90;;;;;;5042428;28;20036;-67
2022/10/11 09:09:10;;;;;;;23.52;8.95;;;10.40;99.90;;;;;;5041855;28;20136;-63
2022/10/11 09:11:39;;;;;;;18.33;8.85;;;10.70;99.90;;;;;;5028999;28;20037;-64
2022/10/11 09:14:37;;;;;;;40.03;7.75;;;10.70;99.90;;;;;;5041329;28;20107;-64
2022/10/11 09:17:24;;;;;;;15.60;8.40;;;10.50;99.90;;;;;;5036431;28;20453;-65
2022/10/11 09:20:29;;;;;;;26.60;9.85;;;10.50;99.90;;;;;;5043703;28;20090;-65
2022/10/11 09:23:14;;;;;;;18.10;8.75;;;10.70;99.90;;;;;;5040894;28;20044;-65
2022/10/11 09:25:55;;;;;;;18.23;9.00;;;10.70;99.90;;;;;;5025651;28;20033;-65
2022/10/11 09:28:47;;;;;;;19.95;8.93;;;10.80;99.90;;;;;;5038813;28;20032;-66
2022/10/11 09:31:12;;;;;;;31.92;9.75;;;10.90;99.90;;;;;;5044522;28;20052;-65
2022/10/11 09:33:46;;;;;;;23.35;10.05;;;11.00;99.90;;;;;;5043039;28;20067;-65
2022/10/11 09:36:44;;;;;;;20.27;9.73;;;11.10;99.90;;;;;;5040103;28;20388;-64
2022/10/11 09:39:35;;;;;;;20.27;9.90;;;11.10;99.90;;;;;;5044099;28;20040;-66
2022/10/11 09:42:06;;;;;;;20.17;9.75;;;11.30;99.90;;;;;;5039626;28;20556;-65
2022/10/11 09:44:36;;;;;;;21.55;10.35;;;11.50;99.90;;;;;;5043760;28;20036;-65
2022/10/11 09:47:03;;;;;;;20.48;10.15;;;11.50;99.90;;;;;;5046535;28;20029;-66
2022/10/11 09:49:45;;;;;;;19.13;10.43;;;11.50;99.90;;;;;;5041627;28;20033;-63
2022/10/11 09:52:16;;;;;;;18.65;9.35;;;11.60;99.90;;;;;;5040775;28;20037;-65
2022/10/11 09:54:44;;;;;;;21.92;10.05;;;11.60;99.90;;;;;;5037540;28;20158;-65
2022/10/11 09:57:27;;;;;;;19.13;10.00;;;11.50;99.90;;;;;;5048277;28;20522;-65
2022/10/11 10:00:04;;;;;;;16.30;8.93;;;11.90;99.90;;;;;;5044947;28;20396;-64
2022/10/11 10:02:39;;;;;;;19.00;9.57;;;12.20;99.90;;;;;;5043043;28;20056;-67
2022/10/11 10:05:08;;;;;;;22.50;9.77;;;12.00;99.90;;;;;;5046758;28;20495;-66
2022/10/11 10:07:36;;;;;;;18.73;9.15;;;12.20;99.90;;;;;;5045871;28;20056;-65
2022/10/11 10:10:38;;;;;;;21.92;9.45;;;12.30;99.90;;;;;;5047553;28;20064;-65
2022/10/11 10:13:14;;;;;;;22.52;9.60;;;12.20;99.90;;;;;;5046162;28;20036;-65
2022/10/11 10:15:45;;;;;;;19.98;10.23;;;12.20;99.90;;;;;;5039402;28;20029;-66
2022/10/11 10:18:22;;;;;;;23.17;9.73;;;12.10;99.90;;;;;;5039961;28;20065;-65
2022/10/11 10:20:54;;;;;;;19.65;9.55;;;12.30;99.90;;;;;;5041540;28;20040;-66
2022/10/11 10:23:25;;;;;;;23.13;10.73;;;12.30;99.90;;;;;;5044688;28;20479;-65
2022/10/11 10:25:51;;;;;;;18.17;9.45;;;12.10;99.90;;;;;;5024907;28;20110;-65
2022/10/11 10:28:21;;;;;;;17.52;9.93;;;11.90;99.90;;;;;;5046931;28;20017;-64
2022/10/11 10:30:54;;;;;;;18.13;10.10;;;11.80;99.90;;;;;;5035623;28;20052;-65
2022/10/11 10:33:24;;;;;;;22.80;9.90;;;12.10;99.90;;;;;;5032593;28;20028;-63
2022/10/11 10:36:04;;;;;;;18.63;9.55;;;12.40;99.90;;;;;;5042726;28;20522;-64
2022/10/11 10:38:47;;;;;;;20.88;10.13;;;12.50;99.90;;;;;;5035846;28;20443;-65
2022/10/11 10:41:15;;;;;;;22.60;9.87;;;12.70;99.90;;;;;;5043592;28;20112;-65
2022/10/11 10:43:44;;;;;;;20.33;8.95;;;12.80;99.90;;;;;;5044436;28;20088;-65
2022/10/11 10:46:28;;;;;;;17.70;9.35;;;12.70;99.90;;;;;;5043543;28;20013;-66
2022/10/11 10:49:03;;;;;;;;;;;13.20;99.90;;;;;;5045714;28;20029;-65
2022/10/11 10:51:34;;;;;;;;;;;13.20;99.90;;;;;;5041993;28;19912;-61
2022/10/11 10:54:14;;;;;;;37.90;16.83;;;13.00;99.90;;;;;;5039374;28;20050;-65
2022/10/11 10:56:49;;;;;;;20.55;9.82;;;12.90;99.90;;;;;;5038537;28;20033;-63
2022/10/11 10:59:20;;;;;;;18.92;10.43;;;13.00;99.90;;;;;;5044127;28;20021;-63
2022/10/11 11:02:07;;;;;;;17.13;7.97;;;13.30;99.90;;;;;;5040022;28;20029;-66
2022/10/11 11:04:34;;;;;;;13.80;7.97;;;13.80;99.90;;;;;;5045605;28;20087;-64
2022/10/11 11:07:21;;;;;;;20.27;8.60;;;14.10;99.90;;;;;;5049316;28;20025;-65
2022/10/11 11:10:02;;;;;;;15.95;8.35;;;14.10;99.90;;;;;;5049040;28;20598;-64
2022/10/11 11:12:52;;;;;;;17.15;8.63;;;14.00;99.90;;;;;;5047597;28;20056;-63
2022/10/11 11:15:27;;;;;;;20.27;8.35;;;14.20;99.90;;;;;;5038591;28;20055;-64
2022/10/11 11:18:01;;;;;;;13.98;6.78;;;14.20;99.90;;;;;;5047481;28;20021;-63
2022/10/11 11:20:56;;;;;;;11.63;6.63;;;14.30;99.90;;;;;;5038696;28;20033;-65
2022/10/11 11:23:26;;;;;;;14.60;6.65;;;14.50;99.90;;;;;;5054977;28;20380;-64
2022/10/11 11:26:29;;;;;;;17.65;7.60;;;14.10;99.90;;;;;;5028858;28;20418;-66
2022/10/11 11:29:39;;;;;;;35.20;14.45;;;13.80;99.90;;;;;;5059074;28;20025;-66
2022/10/11 11:32:24;;;;;;;17.50;6.88;;;13.30;99.90;;;;;;5030890;28;20083;-64
2022/10/11 11:34:57;;;;;;;16.33;7.45;;;13.00;99.90;;;;;;5047436;28;20029;-66
2022/10/11 11:37:29;;;;;;;19.33;10.10;;;12.80;99.90;;;;;;5049665;28;20033;-64
2022/10/11 11:40:16;;;;;;;16.00;8.13;;;12.50;99.90;;;;;;5042110;28;20488;-66
2022/10/11 11:42:52;;;;;;;18.45;7.60;;;12.50;99.90;;;;;;5049937;28;20024;-65
2022/10/11 11:45:28;;;;;;;19.70;8.25;;;12.50;99.90;;;;;;5041121;28;20048;-66
2022/10/11 11:48:02;;;;;;;15.90;7.40;;;12.50;99.90;;;;;;5046642;28;20402;-65
2022/10/11 11:50:35;;;;;;;18.80;8.45;;;12.50;99.90;;;;;;5055482;28;20029;-66
2022/10/11 11:53:11;;;;;;;15.35;8.18;;;12.50;99.90;;;;;;5044392;28;20181;-66
2022/10/11 11:55:42;;;;;;;18.20;8.63;;;12.50;99.90;;;;;;5037565;28;20116;-65
2022/10/11 11:58:29;;;;;;;15.60;7.13;;;12.50;99.90;;;;;;5043866;28;20025;-66
2022/10/11 12:01:08;;;;;;;14.88;7.38;;;12.60;99.90;;;;;;5042047;28;20075;-66
2022/10/11 12:03:38;;;;;;;18.20;6.80;;;12.60;99.90;;;;;;5045004;28;20032;-66
2022/10/11 12:06:13;;;;;;;14.65;6.10;;;12.70;99.90;;;;;;5044355;28;20017;-65
2022/10/11 12:08:42;;;;;;;11.55;6.18;;;12.70;99.90;;;;;;5044236;28;20070;-65
2022/10/11 12:11:19;;;;;;;15.82;6.25;;;12.70;99.90;;;;;;5043344;28;20037;-64
2022/10/11 12:13:46;;;;;;;15.55;5.80;;;12.70;99.90;;;;;;5045232;28;20068;-66
2022/10/11 12:16:14;;;;;;;14.10;5.63;;;12.70;99.90;;;;;;5044717;28;20104;-67
2022/10/11 12:18:58;;;;;;;13.90;4.30;;;12.80;99.90;;;;;;5041363;28;20432;-65
2022/10/11 12:21:42;;;;;;;12.15;4.40;;;12.90;99.90;;;;;;5039973;28;20032;-65
2022/10/11 12:24:18;;;;;;;8.98;2.20;;;13.00;99.90;;;;;;5047374;28;20123;-66
2022/10/11 12:26:52;;;;;;;8.70;3.50;;;12.90;99.90;;;;;;5030678;28;20064;-67
2022/10/11 12:29:24;;;;;;;;;;;12.90;99.90;;;;;;5048018;28;20039;-67
2022/10/11 12:31:59;;;;;;;16.52;3.60;;;13.00;99.90;;;;;;5043309;28;20425;-64
2022/10/11 12:34:40;;;;;;;11.55;2.50;;;13.00;99.90;;;;;;5041636;28;20029;-65
2022/10/11 12:37:18;;;;;;;8.90;3.42;;;13.00;99.90;;;;;;5044325;28;20021;-67
2022/10/11 12:39:53;;;;;;;7.03;3.00;;;13.10;99.90;;;;;;5036270;28;20013;-65
2022/10/11 12:42:22;;;;;;;10.30;3.38;;;13.10;99.90;;;;;;5039985;28;20025;-65
2022/10/11 12:45:12;;;;;;;12.85;3.30;;;13.10;99.90;;;;;;5046927;28;20029;-64
2022/10/11 12:47:46;;;;;;;10.30;3.63;;;13.20;99.90;;;;;;5041288;28;20032;-64
2022/10/11 12:50:20;;;;;;;18.77;4.60;;;13.20;99.90;;;;;;5041007;28;20485;-67
2022/10/11 12:53:03;;;;;;;6.65;2.90;;;13.20;99.90;;;;;;5043182;28;20029;-66
2022/10/11 12:55:45;;;;;;;9.02;2.75;;;13.20;99.90;;;;;;5044883;28;20037;-61
2022/10/11 12:58:37;;;;;;;6.32;2.78;;;13.20;99.90;;;;;;5048140;28;20417;-65
2022/10/11 13:01:03;;;;;;;11.07;2.50;;;13.30;99.90;;;;;;5042071;28;20062;-65
2022/10/11 13:03:38;;;;;;;12.30;2.83;;;13.30;99.90;;;;;;5045086;28;20107;-64
2022/10/11 13:06:18;;;;;;;12.02;2.90;;;13.30;99.90;;;;;;5042192;28;20060;-66
2022/10/11 13:08:55;;;;;;;10.70;3.88;;;13.20;99.90;;;;;;5041886;28;20072;-64